EPZR weather

Żar Airport
Międzybrodzie Żywieckie, Silesia, Poland

Public forecast

Using degrees Celsius for public forecast. Weather courtesy of forecast.io.

METAR (pilot weather report)

Closest report is Kraków John Paul II International Airport, 28.6 nm (53.0 km) NE. Retrieved 2019/03/26 18:30 UTC (2 hours ago):

EPKK 261830Z 27015KT 9999 SCT040TCU BKN056 06/M03 Q1019

TAF (pilot weather forecast)

Closest forecast is Kraków John Paul II International Airport, 28.6 nm (53.0 km) NE. Retrieved 2019/03/26 18:33 UTC (1 hour ago):

TAF EPKK 261730Z 2618/2718 26015G25KT 9999 BKN033 TEMPO 2618/2624 2000 SHRA SHSNRA BKN008 BKN016CB PROB30 TEMPO 2618/2620 28020G35KT TSGS BECMG 2621/2624 28007KT